createdAt,value
2022-10-22T00:01:04.661Z,10.23
2022-10-22T00:03:38.476Z,11.55
2022-10-22T00:06:06.472Z,9.40
2022-10-22T00:08:33.817Z,9.50
2022-10-22T00:11:12.513Z,9.68
2022-10-22T00:13:40.721Z,9.30
2022-10-22T00:16:08.649Z,9.85
2022-10-22T00:18:36.403Z,10.00
2022-10-22T00:21:04.874Z,9.95
2022-10-22T00:23:32.731Z,10.85
2022-10-22T00:26:02.277Z,9.73
2022-10-22T00:28:30.551Z,9.77
2022-10-22T00:31:03.859Z,9.88
2022-10-22T00:33:35.229Z,9.88
2022-10-22T00:36:02.746Z,10.95
2022-10-22T00:38:30.173Z,10.50
2022-10-22T00:40:57.725Z,9.55
2022-10-22T00:43:25.221Z,10.30
2022-10-22T00:45:54.021Z,10.00
2022-10-22T00:48:28.286Z,9.68
2022-10-22T00:51:06.538Z,9.35
2022-10-22T00:53:39.929Z,9.43
2022-10-22T00:56:09.159Z,9.60
2022-10-22T00:58:44.080Z,9.15
2022-10-22T01:01:21.845Z,10.60
2022-10-22T01:03:53.797Z,9.43
2022-10-22T01:06:36.837Z,10.20
2022-10-22T01:09:17.044Z,10.15
2022-10-22T01:12:05.333Z,9.98
2022-10-22T01:15:30.309Z,9.95
2022-10-22T01:18:16.066Z,10.73
2022-10-22T01:21:12.053Z,9.73
2022-10-22T01:24:10.539Z,9.95
2022-10-22T01:26:59.805Z,9.18
2022-10-22T01:29:50.820Z,9.07
2022-10-22T01:32:22.226Z,8.50
2022-10-22T01:34:54.865Z,8.43
2022-10-22T01:37:26.137Z,9.07
2022-10-22T01:39:54.477Z,9.65
2022-10-22T01:42:22.240Z,9.15
2022-10-22T01:44:53.581Z,9.65
2022-10-22T01:47:50.577Z,10.02
2022-10-22T01:50:50.052Z,8.20
2022-10-22T01:53:32.959Z,9.18
2022-10-22T01:56:25.077Z,9.93
2022-10-22T01:59:08.434Z,9.93
2022-10-22T02:02:08.950Z,9.32
2022-10-22T02:04:46.365Z,10.15
2022-10-22T02:07:19.242Z,9.65
2022-10-22T02:09:47.296Z,10.32
2022-10-22T02:12:17.895Z,10.02
2022-10-22T02:14:46.870Z,9.95
2022-10-22T02:17:20.129Z,9.98
2022-10-22T02:20:19.686Z,10.25
2022-10-22T02:22:47.691Z,12.40
2022-10-22T02:25:15.210Z,11.23
2022-10-22T02:28:02.900Z,11.63
2022-10-22T02:30:33.123Z,11.65
2022-10-22T02:33:20.765Z,11.43
2022-10-22T02:35:49.848Z,12.45
2022-10-22T02:38:19.082Z,10.43
2022-10-22T02:40:47.040Z,11.68
2022-10-22T02:43:15.153Z,11.15
2022-10-22T02:45:42.353Z,10.88
2022-10-22T02:48:09.851Z,10.77
2022-10-22T02:50:37.224Z,10.77
2022-10-22T02:53:05.003Z,10.93
2022-10-22T02:55:32.256Z,11.38
2022-10-22T02:57:59.760Z,11.13
2022-10-22T03:00:28.374Z,11.82
2022-10-22T03:02:56.089Z,11.00
2022-10-22T03:05:23.296Z,10.90
2022-10-22T03:07:50.784Z,11.20
2022-10-22T03:10:18.046Z,11.25
2022-10-22T03:12:45.474Z,11.30
2022-10-22T03:15:12.724Z,11.07
2022-10-22T03:17:40.489Z,11.45
2022-10-22T03:20:08.718Z,10.93
2022-10-22T03:22:44.296Z,10.95
2022-10-22T03:25:36.568Z,10.63
2022-10-22T03:28:06.893Z,11.32
2022-10-22T03:30:34.184Z,11.50
2022-10-22T03:33:02.096Z,12.38
2022-10-22T03:35:29.585Z,9.50
2022-10-22T03:38:00.770Z,10.05
2022-10-22T03:40:28.206Z,12.00
2022-10-22T03:43:14.849Z,10.77
2022-10-22T03:45:42.013Z,10.38
2022-10-22T03:48:09.483Z,11.20
2022-10-22T03:50:36.712Z,10.77
2022-10-22T03:53:04.895Z,9.50
2022-10-22T03:55:32.119Z,10.52
2022-10-22T03:57:59.575Z,10.75
2022-10-22T04:00:27.106Z,10.55
2022-10-22T04:02:57.343Z,11.82
2022-10-22T04:05:24.636Z,9.98
2022-10-22T04:07:52.353Z,10.38
2022-10-22T04:10:19.623Z,10.18
2022-10-22T04:12:50.326Z,11.05
2022-10-22T04:15:17.680Z,9.65
2022-10-22T04:17:45.166Z,10.02
2022-10-22T04:20:12.780Z,10.40
2022-10-22T04:22:41.263Z,10.80
2022-10-22T04:25:10.762Z,10.73
2022-10-22T04:27:43.767Z,10.93
2022-10-22T04:30:26.072Z,10.13
2022-10-22T04:33:05.405Z,9.90
2022-10-22T04:35:38.825Z,10.40
2022-10-22T04:38:06.278Z,11.40
2022-10-22T04:40:33.827Z,10.73
2022-10-22T04:43:01.434Z,10.90
2022-10-22T04:45:28.684Z,11.43
2022-10-22T04:47:56.817Z,10.60
2022-10-22T04:50:42.816Z,11.23
2022-10-22T04:53:10.353Z,10.85
2022-10-22T04:55:37.564Z,11.32
2022-10-22T04:58:05.297Z,11.48
2022-10-22T05:00:32.800Z,10.38
2022-10-22T05:03:00.674Z,12.07
2022-10-22T05:05:28.874Z,12.07
2022-10-22T05:08:13.854Z,10.95
2022-10-22T05:10:42.771Z,11.35
2022-10-22T05:13:16.171Z,11.32
2022-10-22T05:16:14.657Z,9.98
2022-10-22T05:18:46.935Z,11.38
2022-10-22T05:21:18.170Z,11.55
2022-10-22T05:23:48.379Z,10.88
2022-10-22T05:26:18.854Z,12.15
2022-10-22T05:28:48.527Z,10.60
2022-10-22T05:31:17.871Z,11.18
2022-10-22T05:33:46.122Z,12.18
2022-10-22T05:36:16.295Z,10.82
2022-10-22T05:38:44.033Z,10.95
2022-10-22T05:41:17.188Z,10.88
2022-10-22T05:43:45.329Z,11.55
2022-10-22T05:46:22.014Z,10.55
2022-10-22T05:48:59.269Z,10.40
2022-10-22T05:51:30.978Z,11.65
2022-10-22T05:54:01.210Z,14.63
2022-10-22T05:56:30.090Z,14.02
2022-10-22T05:58:57.874Z,16.42
2022-10-22T06:01:28.161Z,17.70
2022-10-22T06:03:58.588Z,17.77
2022-10-22T06:06:46.808Z,16.98
2022-10-22T06:09:22.456Z,17.08
2022-10-22T06:11:50.997Z,16.67
2022-10-22T06:14:20.337Z,20.40
2022-10-22T06:16:48.404Z,16.80
2022-10-22T06:19:18.505Z,13.68
2022-10-22T06:21:47.574Z,12.18
2022-10-22T06:24:19.705Z,11.60
2022-10-22T06:26:52.749Z,12.55
2022-10-22T06:29:20.440Z,12.48
2022-10-22T06:31:48.030Z,11.90
2022-10-22T06:34:18.966Z,12.88
2022-10-22T06:36:47.132Z,11.25
2022-10-22T06:39:17.559Z,11.15
2022-10-22T06:41:45.269Z,12.23
2022-10-22T06:44:18.223Z,14.05
2022-10-22T06:46:46.029Z,16.10
2022-10-22T06:49:15.215Z,21.08
2022-10-22T06:51:42.693Z,18.30
2022-10-22T06:54:10.891Z,19.10
2022-10-22T06:56:38.229Z,17.35
2022-10-22T06:59:05.755Z,13.32
2022-10-22T07:01:35.375Z,13.07
2022-10-22T07:04:04.328Z,15.05
2022-10-22T07:06:31.626Z,16.88
2022-10-22T07:09:00.075Z,13.73
2022-10-22T07:11:30.268Z,16.08
2022-10-22T07:13:59.601Z,15.55
2022-10-22T07:16:31.120Z,14.57
2022-10-22T07:19:04.753Z,13.73
2022-10-22T07:21:32.315Z,15.35
2022-10-22T07:24:00.410Z,12.35
2022-10-22T07:26:30.964Z,11.15
2022-10-22T07:29:02.490Z,13.05
2022-10-22T07:31:30.030Z,14.25
2022-10-22T07:33:58.435Z,18.42
2022-10-22T07:36:25.741Z,13.82
2022-10-22T07:38:58.252Z,13.05
2022-10-22T07:41:27.530Z,11.80
2022-10-22T07:43:56.057Z,11.75
2022-10-22T07:46:24.138Z,10.50
2022-10-22T07:48:51.992Z,11.07
2022-10-22T07:51:19.254Z,14.77
2022-10-22T07:53:46.808Z,14.90
2022-10-22T07:56:14.184Z,13.18
2022-10-22T07:58:41.710Z,12.18
2022-10-22T08:01:09.047Z,12.70
2022-10-22T08:03:36.897Z,11.57
2022-10-22T08:06:04.357Z,10.90
2022-10-22T08:08:32.424Z,10.77
2022-10-22T08:11:00.906Z,10.07
2022-10-22T08:13:30.774Z,10.68
2022-10-22T08:16:01.824Z,10.10
2022-10-22T08:18:29.808Z,11.63
2022-10-22T08:20:57.561Z,10.15
2022-10-22T08:23:26.206Z,10.23
2022-10-22T08:25:57.043Z,12.75
2022-10-22T08:28:24.908Z,12.13
2022-10-22T08:30:52.185Z,12.32
2022-10-22T08:33:19.800Z,10.60
2022-10-22T08:35:51.805Z,12.60
2022-10-22T08:38:19.907Z,11.88
2022-10-22T08:41:06.334Z,10.52
2022-10-22T08:43:42.104Z,9.82
2022-10-22T08:46:42.910Z,10.02
2022-10-22T08:49:20.669Z,11.63
2022-10-22T08:51:48.161Z,11.82
2022-10-22T08:54:44.658Z,10.40
2022-10-22T08:57:39.460Z,10.07
2022-10-22T09:02:48.677Z,9.77
2022-10-22T09:05:54.196Z,10.77
2022-10-22T09:08:22.119Z,10.43
2022-10-22T09:10:56.028Z,10.27
2022-10-22T09:13:24.236Z,10.38
2022-10-22T09:15:56.313Z,11.00
2022-10-22T09:18:30.018Z,10.63
2022-10-22T09:21:04.279Z,11.25
2022-10-22T09:23:39.971Z,11.32
2022-10-22T09:26:15.735Z,12.27
2022-10-22T09:28:44.115Z,11.38
2022-10-22T09:31:13.779Z,11.73
2022-10-22T09:33:42.985Z,11.95
2022-10-22T09:36:18.712Z,12.10
2022-10-22T09:38:52.503Z,12.57
2022-10-22T09:41:26.304Z,12.63
2022-10-22T09:43:57.042Z,12.30
2022-10-22T09:46:31.667Z,13.38
2022-10-22T09:49:11.086Z,16.15
2022-10-22T09:51:51.995Z,20.42
2022-10-22T09:54:24.424Z,19.67
2022-10-22T09:56:57.804Z,24.52
2022-10-22T09:59:29.132Z,27.85
2022-10-22T10:02:08.511Z,21.13
2022-10-22T10:04:53.043Z,19.73
2022-10-22T10:07:23.647Z,16.20
2022-10-22T10:09:52.474Z,16.95
2022-10-22T10:13:05.544Z,18.73
2022-10-22T10:15:55.733Z,13.07
2022-10-22T10:19:19.725Z,12.15
2022-10-22T10:22:12.297Z,12.32
2022-10-22T10:24:48.358Z,11.73
2022-10-22T10:27:20.939Z,12.25
2022-10-22T10:30:16.074Z,11.70
2022-10-22T10:33:01.758Z,11.57
2022-10-22T10:35:37.118Z,13.15
2022-10-22T10:38:40.583Z,11.02
2022-10-22T10:41:17.977Z,11.27
2022-10-22T10:43:51.857Z,11.77
2022-10-22T10:46:48.720Z,12.05
2022-10-22T10:49:33.198Z,12.50
2022-10-22T10:55:23.117Z,15.07
2022-10-22T10:58:40.186Z,13.93
2022-10-22T11:01:42.094Z,13.90
2022-10-22T11:04:47.215Z,14.60
2022-10-22T11:07:34.325Z,13.60
2022-10-22T11:10:32.534Z,15.52
2022-10-22T11:13:08.995Z,15.73
2022-10-22T11:15:39.416Z,14.57
2022-10-22T11:18:18.493Z,15.02
2022-10-22T11:21:17.657Z,13.85
2022-10-22T11:23:46.899Z,13.52
2022-10-22T11:26:46.470Z,13.80
2022-10-22T11:29:23.026Z,15.57
2022-10-22T11:31:53.416Z,15.55
2022-10-22T11:34:44.694Z,16.58
2022-10-22T11:37:14.612Z,15.70
2022-10-22T11:39:51.392Z,14.07
2022-10-22T11:42:30.342Z,13.98
2022-10-22T11:45:29.551Z,12.15
2022-10-22T11:47:57.108Z,14.05
2022-10-22T11:50:47.100Z,13.98
2022-10-22T11:53:14.556Z,16.48
2022-10-22T11:55:55.610Z,14.00
2022-10-22T11:58:38.418Z,13.18
2022-10-22T12:01:08.391Z,13.88
2022-10-22T12:03:38.017Z,15.52
2022-10-22T12:06:05.267Z,15.38
2022-10-22T12:08:34.255Z,13.23
2022-10-22T12:11:41.760Z,13.13
2022-10-22T12:14:28.178Z,13.18
2022-10-22T12:17:14.289Z,17.60
2022-10-22T12:19:45.168Z,17.80
2022-10-22T12:22:31.989Z,14.63
2022-10-22T12:25:10.770Z,15.93
2022-10-22T12:27:42.016Z,14.43
2022-10-22T12:30:37.026Z,13.48
2022-10-22T12:33:28.425Z,14.82
2022-10-22T12:36:07.770Z,14.05
2022-10-22T12:38:49.945Z,13.40
2022-10-22T12:41:18.719Z,14.20
2022-10-22T12:43:46.267Z,14.50
2022-10-22T12:46:16.503Z,14.98
2022-10-22T12:48:45.927Z,16.40
2022-10-22T12:51:18.340Z,15.27
2022-10-22T12:53:53.412Z,14.93
2022-10-22T12:56:32.415Z,15.30
2022-10-22T12:59:39.409Z,13.55
2022-10-22T13:02:31.333Z,15.10
2022-10-22T13:05:31.432Z,18.02
2022-10-22T13:10:55.026Z,16.00
2022-10-22T13:13:35.954Z,15.07
2022-10-22T13:16:14.410Z,13.98
2022-10-22T13:18:42.841Z,15.05
2022-10-22T13:21:24.298Z,14.90
2022-10-22T13:24:00.252Z,17.77
2022-10-22T13:26:33.677Z,16.27
2022-10-22T13:29:02.990Z,15.35
2022-10-22T13:31:33.651Z,15.90
2022-10-22T13:34:09.826Z,16.10
2022-10-22T13:36:39.453Z,15.10
2022-10-22T13:39:09.001Z,16.45
2022-10-22T13:44:08.368Z,16.33
2022-10-22T13:46:44.845Z,15.23
2022-10-22T13:49:23.524Z,15.90
2022-10-22T13:51:51.940Z,15.30
2022-10-22T13:54:24.595Z,25.35
2022-10-22T13:56:53.742Z,37.85
2022-10-22T13:59:22.993Z,20.48
2022-10-22T14:01:52.766Z,20.27
2022-10-22T14:04:20.396Z,18.52
2022-10-22T14:06:47.962Z,16.98
2022-10-22T14:09:20.706Z,19.65
2022-10-22T14:11:53.423Z,22.33
2022-10-22T14:14:41.339Z,22.13
2022-10-22T14:17:22.291Z,20.77
2022-10-22T14:20:46.295Z,19.75
2022-10-22T14:23:24.722Z,19.60
2022-10-22T14:25:52.443Z,20.10
2022-10-22T14:28:20.355Z,21.38
2022-10-22T14:30:48.239Z,21.52
2022-10-22T14:33:28.952Z,22.75
2022-10-22T14:36:00.642Z,21.45
2022-10-22T14:38:29.209Z,19.20
2022-10-22T14:41:05.639Z,19.70
2022-10-22T14:44:29.264Z,19.75
2022-10-22T14:47:36.229Z,21.40
2022-10-22T14:54:03.225Z,24.15
2022-10-22T14:56:30.633Z,23.30
2022-10-22T14:58:58.180Z,21.60
2022-10-22T15:01:25.530Z,21.42
2022-10-22T15:03:55.466Z,21.60
2022-10-22T15:06:32.650Z,23.73
2022-10-22T15:09:03.565Z,22.50
2022-10-22T15:11:35.997Z,21.67
2022-10-22T15:14:05.264Z,21.48
2022-10-22T15:16:32.492Z,27.25
2022-10-22T15:19:00.998Z,25.38
2022-10-22T15:21:28.692Z,24.77
2022-10-22T15:23:56.426Z,27.17
2022-10-22T15:26:26.012Z,27.10
2022-10-22T15:29:29.112Z,28.05
2022-10-22T15:35:54.556Z,92.78
2022-10-22T15:38:39.008Z,114.25
2022-10-22T15:41:10.397Z,101.45
2022-10-22T15:43:38.387Z,56.28
2022-10-22T15:46:11.969Z,61.22
2022-10-22T15:48:39.959Z,46.13
2022-10-22T15:51:15.516Z,46.85
2022-10-22T15:53:43.494Z,73.00
2022-10-22T15:56:12.152Z,74.95
2022-10-22T15:58:40.067Z,68.22
2022-10-22T16:01:11.265Z,63.40
2022-10-22T16:03:39.423Z,41.38
2022-10-22T16:06:09.233Z,57.70
2022-10-22T16:08:38.357Z,43.22
2022-10-22T16:11:08.727Z,39.50
2022-10-22T16:13:37.441Z,38.30
2022-10-22T16:16:07.120Z,44.72
2022-10-22T16:18:34.602Z,65.88
2022-10-22T16:21:01.932Z,51.70
2022-10-22T16:23:29.840Z,62.05
2022-10-22T16:26:15.368Z,48.95
2022-10-22T16:28:59.272Z,31.00
2022-10-22T16:31:35.403Z,44.53
2022-10-22T16:34:18.526Z,47.33
2022-10-22T16:37:39.329Z,43.63
2022-10-22T16:40:58.060Z,59.85
2022-10-22T16:44:50.180Z,45.92
2022-10-22T16:48:00.206Z,30.90
2022-10-22T16:50:41.744Z,47.35
2022-10-22T16:56:11.830Z,37.83
2022-10-22T16:58:43.701Z,44.40
2022-10-22T17:01:13.387Z,43.80
2022-10-22T17:03:42.618Z,43.17
2022-10-22T17:06:11.946Z,43.65
2022-10-22T17:08:41.156Z,45.65
2022-10-22T17:11:13.595Z,44.60
2022-10-22T17:13:42.015Z,44.88
2022-10-22T17:16:12.630Z,37.25
2022-10-22T17:18:41.388Z,32.97
2022-10-22T17:21:10.918Z,35.13
2022-10-22T17:23:40.123Z,38.13
2022-10-22T17:26:44.530Z,35.42
2022-10-22T17:29:52.815Z,25.17
2022-10-22T17:32:57.292Z,28.20
2022-10-22T17:36:33.213Z,33.60
2022-10-22T17:39:39.937Z,31.83
2022-10-22T17:42:09.220Z,33.53
2022-10-22T17:44:37.698Z,32.17
2022-10-22T17:47:06.300Z,29.63
2022-10-22T17:49:33.587Z,30.13
2022-10-22T17:54:33.963Z,30.92
2022-10-22T17:57:11.094Z,29.58
2022-10-22T17:59:41.372Z,36.30
2022-10-22T18:02:17.386Z,40.90
2022-10-22T18:05:11.913Z,35.58
2022-10-22T18:07:49.580Z,31.17
2022-10-22T18:10:24.982Z,35.80
2022-10-22T18:12:55.650Z,25.95
2022-10-22T18:15:58.606Z,42.42
2022-10-22T18:19:04.690Z,34.78
2022-10-22T18:22:04.905Z,28.75
2022-10-22T18:24:36.818Z,24.52
2022-10-22T18:27:04.249Z,40.70
2022-10-22T18:29:31.855Z,39.22
2022-10-22T18:32:00.152Z,35.75
2022-10-22T18:34:31.172Z,26.17
2022-10-22T18:36:58.690Z,28.00
2022-10-22T18:39:26.254Z,30.08
2022-10-22T18:41:55.491Z,39.70
2022-10-22T18:45:29.449Z,23.20
2022-10-22T18:49:03.236Z,23.98
2022-10-22T18:51:32.941Z,21.33
2022-10-22T18:54:32.655Z,20.65
2022-10-22T18:57:02.875Z,22.05
2022-10-22T18:59:31.745Z,46.95
2022-10-22T19:01:59.806Z,59.83
2022-10-22T19:04:34.246Z,45.15
2022-10-22T19:07:01.976Z,44.00
2022-10-22T19:09:29.265Z,24.50
2022-10-22T19:11:56.916Z,24.85
2022-10-22T19:14:24.233Z,36.65
2022-10-22T19:16:52.037Z,35.92
2022-10-22T19:19:22.479Z,31.85
2022-10-22T19:21:51.330Z,28.90
2022-10-22T19:24:20.379Z,37.25
2022-10-22T19:26:59.692Z,40.60
2022-10-22T19:29:32.296Z,41.55
2022-10-22T19:32:59.327Z,40.70
2022-10-22T19:37:06.946Z,40.13
2022-10-22T19:42:56.745Z,37.15
2022-10-22T19:45:26.574Z,30.02
2022-10-22T19:47:54.843Z,33.45
2022-10-22T19:50:22.827Z,31.17
2022-10-22T19:52:51.343Z,29.35
2022-10-22T19:55:18.969Z,32.15
2022-10-22T19:57:53.716Z,34.85
2022-10-22T20:01:39.541Z,28.27
2022-10-22T20:04:15.274Z,26.67
2022-10-22T20:06:45.614Z,17.52
2022-10-22T20:09:26.373Z,20.17
2022-10-22T20:11:54.032Z,11.43
2022-10-22T20:14:21.689Z,10.68
2022-10-22T20:16:49.176Z,9.82
2022-10-22T20:19:17.412Z,6.97
2022-10-22T20:21:46.066Z,7.35
2022-10-22T20:24:14.453Z,6.75
2022-10-22T20:26:44.952Z,6.10
2022-10-22T20:29:26.383Z,6.40
2022-10-22T20:32:28.374Z,6.00
2022-10-22T20:35:22.814Z,5.53
2022-10-22T20:37:54.255Z,5.10
2022-10-22T20:40:34.072Z,5.53
2022-10-22T20:43:04.673Z,6.05
2022-10-22T20:46:03.971Z,5.57
2022-10-22T20:48:38.684Z,4.50
2022-10-22T20:51:10.289Z,5.85
2022-10-22T20:53:40.910Z,5.20
2022-10-22T20:56:15.432Z,5.25
2022-10-22T20:58:48.084Z,5.40
2022-10-22T21:01:23.985Z,6.00
2022-10-22T21:03:53.007Z,5.18
2022-10-22T21:06:23.332Z,6.00
2022-10-22T21:08:52.251Z,5.28
2022-10-22T21:11:20.939Z,5.60
2022-10-22T21:13:48.732Z,5.57
2022-10-22T21:16:18.764Z,5.22
2022-10-22T21:18:49.558Z,4.50
2022-10-22T21:21:17.802Z,5.07
2022-10-22T21:23:45.625Z,5.47
2022-10-22T21:26:13.087Z,5.65
2022-10-22T21:28:42.070Z,5.43
2022-10-22T21:31:21.128Z,5.70
2022-10-22T21:34:17.850Z,4.53
2022-10-22T21:36:53.398Z,5.63
2022-10-22T21:39:26.536Z,6.70
2022-10-22T21:41:57.494Z,5.85
2022-10-22T21:44:25.222Z,5.05
2022-10-22T21:46:52.508Z,5.45
2022-10-22T21:49:20.042Z,5.45
2022-10-22T21:51:47.306Z,6.18
2022-10-22T21:54:14.881Z,6.45
2022-10-22T21:56:43.804Z,4.50
2022-10-22T21:59:11.352Z,4.15
2022-10-22T22:01:39.024Z,4.40
2022-10-22T22:04:18.624Z,4.35
2022-10-22T22:06:46.101Z,4.05
2022-10-22T22:09:21.032Z,3.88
2022-10-22T22:11:51.830Z,3.85
2022-10-22T22:14:21.064Z,4.10
2022-10-22T22:16:48.313Z,4.30
2022-10-22T22:19:15.819Z,3.60
2022-10-22T22:21:43.131Z,3.30
2022-10-22T22:24:12.968Z,3.80
2022-10-22T22:26:41.026Z,4.10
2022-10-22T22:29:15.319Z,4.07
2022-10-22T22:32:49.148Z,2.97
2022-10-22T22:35:32.177Z,3.10
2022-10-22T22:38:03.441Z,3.00
2022-10-22T22:40:39.210Z,3.30
2022-10-22T22:43:11.644Z,4.10
2022-10-22T22:45:40.894Z,4.18
2022-10-22T22:48:08.282Z,6.43
2022-10-22T22:50:36.774Z,9.27
2022-10-22T22:53:04.013Z,4.55
2022-10-22T22:55:32.091Z,4.60
2022-10-22T22:57:59.409Z,4.45
2022-10-22T23:00:27.174Z,5.55
2022-10-22T23:02:55.920Z,4.93
2022-10-22T23:05:23.400Z,4.88
2022-10-22T23:07:50.633Z,4.47
2022-10-22T23:10:18.060Z,4.82
2022-10-22T23:12:45.494Z,4.13
2022-10-22T23:15:12.991Z,4.55
2022-10-22T23:17:40.256Z,4.25
2022-10-22T23:20:08.961Z,4.93
2022-10-22T23:22:36.542Z,4.70
2022-10-22T23:25:04.193Z,4.57
2022-10-22T23:27:31.415Z,5.47
2022-10-22T23:29:58.863Z,5.05
2022-10-22T23:32:26.140Z,4.85
2022-10-22T23:34:53.640Z,4.68
2022-10-22T23:37:20.973Z,4.68
2022-10-22T23:39:48.526Z,5.70
2022-10-22T23:42:15.767Z,5.28
2022-10-22T23:44:43.565Z,5.85
2022-10-22T23:47:11.011Z,5.50
2022-10-22T23:49:38.446Z,5.40
2022-10-22T23:52:05.690Z,5.53
2022-10-22T23:54:34.417Z,5.32
2022-10-22T23:57:01.665Z,5.35
2022-10-22T23:59:29.122Z,5.55
